Time;durP1;ratioP1;P1;durP2;ratioP2;P2;SDS_P1;SDS_P2;PMS_P1;PMS_P2;Temp;Humidity;BMP_temperature;BMP_pressure;BME280_temperature;BME280_humidity;BME280_pressure;Samples;Min_cycle;Max_cycle;Signal;HPM_P1;HPM_P2
2022/11/20 00:00:11;;;;;;;;;14.00;9.00;;;;;11.14;69.00;-19509.84;4901905;28;45958;-90
2022/11/20 00:02:37;;;;;;;;;10.33;9.00;;;;;11.14;68.87;-19509.72;4899358;29;45584;-90
2022/11/20 00:05:06;;;;;;;;;10.33;9.00;;;;;10.99;69.03;-19505.78;4900766;29;45541;-90
2022/11/20 00:07:31;;;;;;;;;6.67;6.67;;;;;10.72;69.19;-19498.66;4883897;29;45340;-91
2022/11/20 00:09:56;;;;;;;;;6.67;6.33;;;;;10.50;69.11;-19492.97;4900086;29;45291;-92
2022/11/20 00:12:22;;;;;;;;;7.67;7.67;;;;;10.68;68.98;-19497.56;5039414;23;46263;-91
2022/11/20 00:14:47;;;;;;;;;8.33;8.00;;;;;10.81;69.18;-19500.94;4880886;29;45403;-91
2022/11/20 00:17:13;;;;;;;;;9.00;7.00;;;;;10.14;68.83;-19483.41;4865320;29;45556;-90
2022/11/20 00:19:38;;;;;;;;;9.33;6.33;;;;;11.20;69.13;-19511.47;4880915;29;45698;-92
2022/11/20 00:22:04;;;;;;;;;7.33;7.33;;;;;11.10;69.35;-19508.63;4882349;29;46233;-92
2022/11/20 00:24:30;;;;;;;;;10.33;9.00;;;;;11.04;69.02;-19507.00;4877397;29;45450;-90
2022/11/20 00:26:56;;;;;;;;;7.00;7.00;;;;;9.94;69.02;-19478.28;4880619;29;45563;-91
2022/11/20 00:29:22;;;;;;;;;6.00;6.00;;;;;10.84;69.46;-19501.75;4864727;29;45537;-90
2022/11/20 00:31:49;;;;;;;;;8.00;8.00;;;;;9.73;69.09;-19472.59;4880400;29;45746;-90
2022/11/20 00:34:15;;;;;;;;;3.67;3.33;;;;;11.34;69.59;-19515.09;4880895;29;45369;-91
2022/11/20 00:36:43;;;;;;;;;8.33;7.00;;;;;10.23;69.31;-19485.84;4882447;29;45359;-91
2022/11/20 00:39:08;;;;;;;;;8.67;7.00;;;;;11.03;69.43;-19506.75;4865503;29;45644;-92
2022/11/20 00:41:33;;;;;;;;;9.00;7.67;;;;;11.13;69.50;-19509.44;4857389;29;47098;-90
2022/11/20 00:43:59;;;;;;;;;9.33;7.33;;;;;10.66;69.49;-19497.16;4864721;29;45547;-92
2022/11/20 00:49:46;;;;;;;;;6.33;6.00;;;;;11.05;69.21;-19507.41;5156011;23;45620;-91
2022/11/20 00:52:39;;;;;;;;;12.00;8.50;;;;;11.08;69.57;-19508.22;4899255;29;47609;-92
2022/11/20 00:57:42;;;;;;;;;7.00;7.00;;;;;9.94;69.38;-19478.28;5138932;23;45666;-91
2022/11/20 01:03:21;;;;;;;;;7.33;7.33;;;;;9.17;69.45;-19457.88;4896610;29;45761;-91
2022/11/20 01:05:47;;;;;;;;;6.00;6.00;;;;;10.35;69.03;-19488.94;4882469;29;47618;-90
2022/11/20 01:08:12;;;;;;;;;7.00;5.00;;;;;10.89;69.27;-19503.25;4899627;29;45506;-91
2022/11/20 01:10:51;;;;;;;;;5.00;5.00;;;;;9.96;69.06;-19478.53;4883076;29;45469;-89
2022/11/20 01:16:11;;;;;;;;;6.00;6.00;;;;;10.23;69.29;-19485.69;4899309;29;45619;-90
2022/11/20 01:18:38;;;;;;;;;4.67;4.67;;;;;9.76;69.24;-19473.28;4898935;29;46002;-90
2022/11/20 01:21:10;;;;;;;;;4.00;4.00;;;;;10.21;69.03;-19485.16;4899999;28;45335;-90
2022/11/20 01:23:40;;;;;;;;;5.00;4.00;;;;;9.27;69.20;-19460.44;4914833;28;47094;-91
2022/11/20 01:26:08;;;;;;;;;6.67;5.00;;;;;10.65;69.13;-19496.75;4900199;28;45420;-90
2022/11/20 01:28:35;;;;;;;;;7.00;5.33;;;;;9.23;69.10;-19459.50;4899713;29;45565;-90
2022/11/20 01:31:17;;;;;;;;;3.67;3.67;;;;;10.61;69.19;-19495.69;4882837;29;45485;-90
2022/11/20 01:33:44;;;;;;;;;5.00;5.00;;;;;10.56;69.14;-19494.59;4899629;28;47016;-91
2022/11/20 01:36:10;;;;;;;;;3.33;3.33;;;;;10.03;68.96;-19480.56;4889537;29;45536;-89
2022/11/20 01:38:40;;;;;;;;;2.00;2.00;;;;;8.90;69.00;-19450.59;4899082;29;45405;-90
2022/11/20 01:41:05;;;;;;;;;4.67;4.67;;;;;10.20;68.97;-19484.88;4898943;29;45344;-90
2022/11/20 01:43:31;;;;;;;;;5.67;4.00;;;;;9.48;68.69;-19465.97;4895704;29;46380;-89
2022/11/20 01:46:09;;;;;;;;;6.00;5.33;;;;;10.47;69.10;-19492.03;4899721;29;45635;-89
2022/11/20 01:49:08;;;;;;;;;4.33;3.00;;;;;10.45;68.89;-19491.50;4899037;29;45302;-89
2022/11/20 01:51:52;;;;;;;;;4.67;3.33;;;;;9.40;69.06;-19463.81;4895169;29;45709;-90
2022/11/20 01:54:35;;;;;;;;;4.33;4.33;;;;;10.09;69.51;-19482.19;4895615;28;46584;-91
2022/11/20 01:57:20;;;;;;;;;4.00;3.00;;;;;9.75;69.06;-19473.13;4895745;28;45603;-91
2022/11/20 02:00:01;;;;;;;;;5.00;4.33;;;;;10.37;69.26;-19489.34;4897400;29;45815;-89
2022/11/20 02:02:28;;;;;;;;;4.00;4.00;;;;;9.80;69.04;-19474.50;4881226;29;45431;-89
2022/11/20 02:05:00;;;;;;;;;4.00;3.00;;;;;8.92;69.39;-19451.25;4899131;28;46626;-88
2022/11/20 02:07:26;;;;;;;;;5.67;4.00;;;;;9.59;69.30;-19468.81;4898131;29;45561;-88
2022/11/20 02:09:51;;;;;;;;;3.00;3.00;;;;;9.66;69.13;-19470.72;4897835;29;46309;-90
2022/11/20 02:15:10;;;;;;;;;5.33;4.00;;;;;9.65;69.22;-19470.56;4895955;28;45911;-91
2022/11/20 02:18:01;;;;;;;;;;;;;;;;;;;;;
2022/11/20 02:20:27;;;;;;;;;5.33;5.00;;;;;9.25;69.20;-19459.91;4887464;29;69098;-91
2022/11/20 02:23:31;;;;;;;;;6.67;5.00;;;;;8.51;69.07;-19440.31;4891377;29;45532;-91
2022/11/20 02:26:45;;;;;;;;;6.67;5.00;;;;;8.66;69.40;-19444.38;4898397;28;46685;-89
2022/11/20 02:29:11;;;;;;;;;3.67;3.67;;;;;8.96;69.52;-19452.22;4895567;29;45360;-92
2022/11/20 02:31:40;;;;;;;;;3.00;3.00;;;;;9.07;69.27;-19455.19;4912484;28;45453;-89
2022/11/20 02:34:20;;;;;;;;;4.00;3.00;;;;;10.21;69.22;-19485.16;4900982;28;45717;-87
2022/11/20 02:36:48;;;;;;;;;5.00;3.33;;;;;9.98;69.36;-19479.22;4883219;29;46714;-89
2022/11/20 02:42:14;;;;;;;;;4.00;4.00;;;;;8.94;68.95;-19451.78;4902133;29;45643;-89
2022/11/20 02:44:47;;;;;;;;;4.00;3.00;;;;;8.91;68.97;-19451.00;4887455;29;45718;-91
2022/11/20 02:47:12;;;;;;;;;4.67;4.67;;;;;9.91;69.62;-19477.31;4901022;29;46083;-88
2022/11/20 02:49:37;;;;;;;;;4.00;4.00;;;;;9.88;69.12;-19476.66;4900145;29;46007;-91
2022/11/20 02:52:03;;;;;;;;;4.67;3.67;;;;;8.81;69.33;-19448.41;4900297;29;45568;-91
2022/11/20 02:54:29;;;;;;;;;4.00;4.00;;;;;9.63;69.17;-19470.03;4884585;29;45571;-88
2022/11/20 02:56:54;;;;;;;;;5.00;2.33;;;;;9.50;69.19;-19466.66;4883913;29;47862;-91
2022/11/20 02:59:19;;;;;;;;;3.00;3.00;;;;;10.00;69.18;-19479.75;4901292;29;45628;-91
2022/11/20 03:01:45;;;;;;;;;3.00;3.00;;;;;9.67;68.83;-19471.13;4889930;29;45607;-91
2022/11/20 03:04:10;;;;;;;;;2.67;2.67;;;;;9.69;69.34;-19471.66;4895826;29;45708;-91
2022/11/20 03:06:36;;;;;;;;;3.00;3.00;;;;;8.85;69.19;-19449.50;4901850;29;46677;-90
2022/11/20 03:09:02;;;;;;;;;5.00;3.00;;;;;9.04;69.12;-19454.50;4913946;28;45511;-89
2022/11/20 03:11:28;;;;;;;;;2.33;2.00;;;;;8.87;69.27;-19450.03;4899899;29;45514;-90
2022/11/20 03:13:54;;;;;;;;;3.33;3.33;;;;;9.99;69.19;-19479.34;4901070;28;45630;-89
2022/11/20 03:16:34;;;;;;;;;4.00;3.33;;;;;9.02;69.35;-19453.81;4892715;29;46234;-89
2022/11/20 03:19:00;;;;;;;;;9.00;4.00;;;;;8.45;69.39;-19438.97;4883959;29;45497;-91
2022/11/20 03:21:26;;;;;;;;;6.00;4.00;;;;;8.47;69.54;-19439.38;4900719;29;46084;-91
2022/11/20 03:26:53;;;;;;;;;3.00;2.67;;;;;9.35;70.06;-19462.59;4897290;29;45685;-91
2022/11/20 03:29:21;;;;;;;;;3.33;2.67;;;;;9.96;70.10;-19478.69;4900908;28;45538;-92
2022/11/20 03:31:47;;;;;;;;;4.00;4.00;;;;;8.91;70.09;-19451.00;4899607;29;45493;-90
2022/11/20 03:34:13;;;;;;;;;6.00;3.33;;;;;8.95;69.77;-19452.06;4901649;29;45547;-90
2022/11/20 03:36:40;;;;;;;;;5.00;3.67;;;;;9.90;70.17;-19477.06;4901510;29;46155;-92
2022/11/20 03:39:06;;;;;;;;;5.00;3.00;;;;;8.85;70.07;-19449.38;4916319;28;45553;-90
2022/11/20 03:41:36;;;;;;;;;4.00;4.00;;;;;8.35;70.29;-19436.13;4885743;28;45570;-90
2022/11/20 03:44:07;;;;;;;;;3.00;3.00;;;;;9.22;70.31;-19459.09;4896957;29;45423;-88
2022/11/20 03:46:33;;;;;;;;;4.00;4.00;;;;;9.05;70.30;-19454.63;4900610;29;46429;-90
2022/11/20 03:48:59;;;;;;;;;3.33;3.33;;;;;9.25;70.44;-19459.91;4891835;23;45653;-90
2022/11/20 03:51:32;;;;;;;;;5.67;4.67;;;;;8.75;70.66;-19446.66;4915098;28;45487;-89
2022/11/20 03:54:00;;;;;;;;;3.33;3.33;;;;;9.21;70.86;-19458.81;4900550;28;45863;-87
2022/11/20 03:56:31;;;;;;;;;6.00;4.67;;;;;9.17;70.73;-19457.75;4900226;29;46215;-88
2022/11/20 03:58:57;;;;;;;;;3.33;3.00;;;;;8.96;71.05;-19452.22;4899901;28;46125;-90
2022/11/20 04:01:26;;;;;;;;;3.67;2.67;;;;;9.09;71.07;-19455.72;4901345;28;46844;-90
2022/11/20 04:03:53;;;;;;;;;4.00;3.67;;;;;8.17;70.82;-19431.53;4903458;28;45518;-89
2022/11/20 04:06:22;;;;;;;;;4.00;2.33;;;;;8.21;70.83;-19432.47;5468932;23;46435;-91
2022/11/20 04:08:48;;;;;;;;;4.67;4.00;;;;;8.44;70.99;-19438.56;4900689;28;45558;-90
2022/11/20 04:11:22;;;;;;;;;4.33;3.00;;;;;9.41;70.91;-19464.09;4907915;23;46730;-90
2022/11/20 04:13:53;;;;;;;;;4.33;3.33;;;;;9.22;70.94;-19459.22;4900772;28;45530;-90
2022/11/20 04:19:28;;;;;;;;;3.00;3.00;;;;;8.68;70.42;-19444.78;4892074;29;45553;-91
2022/11/20 04:21:53;;;;;;;;;1.67;1.33;;;;;8.58;70.65;-19442.34;4897882;29;45413;-90
2022/11/20 04:24:19;;;;;;;;;3.33;2.67;;;;;9.16;70.43;-19457.63;4906677;28;45508;-89
2022/11/20 04:26:57;;;;;;;;;2.00;1.33;;;;;9.56;70.26;-19468.16;4900327;28;47069;-91
2022/11/20 04:29:22;;;;;;;;;2.00;2.00;;;;;9.19;70.63;-19458.28;4893159;28;45489;-91
2022/11/20 04:31:47;;;;;;;;;2.00;2.00;;;;;9.99;70.85;-19479.34;4901184;28;45370;-89
2022/11/20 04:34:13;;;;;;;;;4.00;3.00;;;;;10.30;70.44;-19487.72;4901792;28;45567;-91
2022/11/20 04:36:39;;;;;;;;;4.00;2.00;;;;;9.17;70.63;-19457.88;4900552;29;45389;-89
2022/11/20 04:39:06;;;;;;;;;3.33;2.00;;;;;9.78;70.97;-19473.94;4901342;29;46655;-91
2022/11/20 04:41:36;;;;;;;;;2.33;1.00;;;;;10.24;70.65;-19485.97;4884041;29;45613;-90
2022/11/20 04:44:04;;;;;;;;;1.00;1.00;;;;;10.37;70.65;-19489.34;4899633;28;45464;-91
2022/11/20 04:46:37;;;;;;;;;1.67;1.67;;;;;9.88;70.42;-19476.66;4999664;23;46282;-90
2022/11/20 04:49:04;;;;;;;;;2.67;2.00;;;;;9.76;70.13;-19473.41;4881185;29;45509;-91
2022/11/20 04:51:29;;;;;;;;;2.00;2.00;;;;;8.99;69.94;-19453.00;4881424;29;45542;-90
2022/11/20 04:53:55;;;;;;;;;1.00;1.00;;;;;9.23;69.95;-19459.38;4880568;29;45589;-92
2022/11/20 04:56:47;;;;;;;;;2.00;0.67;;;;;10.40;69.66;-19490.28;4882004;29;46400;-90
2022/11/20 04:59:12;;;;;;;;;1.33;0.00;;;;;9.66;69.83;-19470.84;4881479;29;45598;-90
2022/11/20 05:01:38;;;;;;;;;2.00;2.00;;;;;9.24;69.48;-19459.63;4881502;29;45266;-92
2022/11/20 05:04:32;;;;;;;;;2.00;2.00;;;;;10.42;69.28;-19490.81;4882384;29;45416;-90
2022/11/20 05:06:58;;;;;;;;;1.00;1.00;;;;;9.30;69.45;-19461.41;4881007;29;47348;-90
2022/11/20 05:09:23;;;;;;;;;2.00;2.00;;;;;10.13;69.69;-19483.13;4879723;29;45772;-90
2022/11/20 05:11:48;;;;;;;;;4.00;1.00;;;;;10.50;69.52;-19492.84;4880379;29;45539;-91
2022/11/20 05:14:14;;;;;;;;;1.00;1.00;;;;;9.54;69.62;-19467.59;4880455;29;45462;-89
2022/11/20 05:20:02;;;;;;;;;1.67;1.67;;;;;9.62;69.21;-19469.78;4870127;29;45531;-90
2022/11/20 05:22:27;;;;;;;;;1.33;1.33;;;;;10.08;69.21;-19481.91;4881083;29;45679;-90
2022/11/20 05:25:11;;;;;;;;;3.00;3.00;;;;;10.09;68.96;-19482.06;4880127;29;45507;-88
2022/11/20 05:27:37;;;;;;;;;3.00;2.00;;;;;10.04;68.70;-19480.84;4880545;29;46813;-91
2022/11/20 05:30:05;;;;;;;;;1.67;1.00;;;;;9.69;68.77;-19471.66;4864350;29;46023;-91
2022/11/20 05:36:09;;;;;;;;;1.00;1.00;;;;;9.37;68.23;-19463.16;4803566;29;45522;-90
2022/11/20 05:38:35;;;;;;;;;0.33;0.33;;;;;9.03;68.22;-19454.22;4802527;29;46863;-91
2022/11/20 05:41:13;;;;;;;;;2.00;2.00;;;;;9.24;68.00;-19459.78;4804226;29;45415;-89
2022/11/20 05:43:40;;;;;;;;;1.00;1.00;;;;;10.08;68.02;-19481.78;4803145;29;46143;-91
2022/11/20 05:46:07;;;;;;;;;1.67;1.67;;;;;9.07;67.70;-19455.19;4788047;29;45613;-90
2022/11/20 05:48:34;;;;;;;;;1.00;1.00;;;;;9.90;68.11;-19477.06;4808894;29;46158;-90
2022/11/20 05:51:02;;;;;;;;;1.67;1.67;;;;;10.04;67.81;-19480.84;4804655;29;45562;-91
2022/11/20 05:53:28;;;;;;;;;3.00;2.00;;;;;9.60;67.87;-19469.09;4797077;29;45581;-88
2022/11/20 05:56:01;;;;;;;;;2.33;1.00;;;;;9.44;67.69;-19464.91;4792868;29;45695;-90
2022/11/20 05:58:27;;;;;;;;;2.00;2.00;;;;;9.52;68.17;-19467.19;4805814;29;46169;-90
2022/11/20 06:00:53;;;;;;;;;0.00;0.00;;;;;9.08;67.64;-19455.59;4804864;29;45619;-90
2022/11/20 06:03:18;;;;;;;;;4.67;3.00;;;;;8.99;68.27;-19453.16;4836386;23;45804;-91
2022/11/20 06:06:04;;;;;;;;;2.00;2.00;;;;;9.92;68.04;-19477.59;4901676;28;45419;-91
2022/11/20 06:11:44;;;;;;;;;1.67;1.67;;;;;10.60;68.09;-19495.41;4954285;23;45789;-91
2022/11/20 06:14:09;;;;;;;;;1.00;1.00;;;;;9.70;68.09;-19471.94;4886980;29;45497;-91
2022/11/20 06:16:35;;;;;;;;;1.33;1.00;;;;;10.22;68.04;-19485.56;4902215;29;45496;-91
2022/11/20 06:19:00;;;;;;;;;2.00;2.00;;;;;9.88;67.95;-19476.50;4896392;29;47306;-89
2022/11/20 06:21:26;;;;;;;;;3.00;1.00;;;;;9.82;67.83;-19475.03;4898484;29;45865;-90
2022/11/20 06:23:54;;;;;;;;;2.00;1.00;;;;;9.00;67.63;-19453.41;5079036;23;45680;-90
2022/11/20 06:26:28;;;;;;;;;1.33;1.33;;;;;8.77;67.57;-19447.34;4902646;29;45544;-91
2022/11/20 06:28:55;;;;;;;;;1.33;1.33;;;;;9.63;67.53;-19469.91;4898967;28;45602;-91
2022/11/20 06:31:28;;;;;;;;;1.00;1.00;;;;;10.09;67.41;-19482.06;4901596;28;45582;-92
2022/11/20 06:34:09;;;;;;;;;2.67;2.00;;;;;8.92;67.45;-19451.13;4900496;29;45798;-90
2022/11/20 06:36:37;;;;;;;;;2.00;1.00;;;;;9.55;67.13;-19467.88;4901147;29;45507;-91
2022/11/20 06:39:02;;;;;;;;;1.00;1.00;;;;;9.89;67.10;-19476.91;4888074;29;47322;-89
2022/11/20 06:41:34;;;;;;;;;2.00;2.00;;;;;10.02;66.85;-19480.31;4901707;28;45619;-91
2022/11/20 06:43:59;;;;;;;;;1.00;1.00;;;;;9.17;66.50;-19457.75;4886466;29;45540;-90
2022/11/20 06:46:25;;;;;;;;;3.00;1.00;;;;;10.06;66.79;-19481.38;4885667;29;45528;-91
2022/11/20 06:48:50;;;;;;;;;1.00;1.00;;;;;9.57;66.47;-19468.41;4901359;29;45897;-91
2022/11/20 06:51:17;;;;;;;;;3.00;1.00;;;;;9.84;66.76;-19475.56;4916064;28;45544;-91
2022/11/20 06:53:42;;;;;;;;;3.00;1.00;;;;;10.08;66.47;-19481.78;4902356;28;45474;-91
2022/11/20 06:56:08;;;;;;;;;1.00;1.00;;;;;8.96;66.44;-19452.22;4886512;29;45640;-91
2022/11/20 06:58:35;;;;;;;;;2.00;2.00;;;;;10.51;66.47;-19493.25;4895167;29;47160;-92
2022/11/20 07:01:03;;;;;;;;;2.00;2.00;;;;;8.86;66.37;-19449.63;4899822;29;45578;-90
2022/11/20 07:03:28;;;;;;;;;1.00;1.00;;;;;9.73;66.72;-19472.59;4889529;29;45486;-91
2022/11/20 07:05:55;;;;;;;;;2.00;2.00;;;;;10.68;66.63;-19497.56;4889638;29;45635;-90
2022/11/20 07:08:21;;;;;;;;;1.00;1.00;;;;;9.71;66.33;-19472.06;4882694;29;47679;-92
2022/11/20 07:11:10;;;;;;;;;2.00;2.00;;;;;10.06;66.38;-19481.25;4901436;28;45711;-90
2022/11/20 07:13:42;;;;;;;;;1.00;1.00;;;;;10.02;66.28;-19480.31;4880127;29;45384;-91
2022/11/20 07:16:10;;;;;;;;;1.00;1.00;;;;;9.18;66.26;-19458.03;4900872;28;45650;-91
2022/11/20 07:18:36;;;;;;;;;2.00;2.00;;;;;9.22;65.95;-19459.09;4905690;23;45581;-91
2022/11/20 07:21:07;;;;;;;;;2.00;2.00;;;;;10.05;65.97;-19480.97;4863281;29;45644;-90
2022/11/20 07:26:53;;;;;;;;;2.00;2.00;;;;;9.32;65.84;-19461.66;5201005;23;46486;-91
2022/11/20 07:32:46;;;;;;;;;2.00;2.00;;;;;10.60;65.34;-19495.53;4883004;23;45772;-90
2022/11/20 07:44:21;;;;;;;;;3.00;1.00;;;;;9.49;65.09;-19466.25;4897478;29;46267;-91
2022/11/20 07:49:22;;;;;;;;;1.00;1.00;;;;;10.77;65.56;-19500.13;5443769;23;45269;-90
2022/11/20 07:52:04;;;;;;;;;3.67;1.00;;;;;9.10;64.95;-19456.00;4880929;29;47680;-91
2022/11/20 07:54:30;;;;;;;;;1.00;1.00;;;;;9.79;64.74;-19474.22;4877241;29;45645;-91
2022/11/20 07:56:58;;;;;;;;;1.67;1.67;;;;;9.23;64.58;-19459.50;4877215;29;45514;-91
2022/11/20 07:59:39;;;;;;;;;1.67;1.67;;;;;10.34;64.64;-19488.81;4869119;29;45680;-95
2022/11/20 08:15:10;;;;;;;;;2.33;2.33;;;;;9.56;64.90;-19468.00;5139259;23;46045;-96
2022/11/20 08:17:58;;;;;;;;;4.00;4.00;;;;;9.94;65.05;-19478.13;4904934;28;45604;-96
2022/11/20 08:40:01;;;;;;;;;8.67;7.00;;;;;9.45;67.30;-19465.31;4949934;23;45441;-94
2022/11/20 08:43:05;;;;;;;;;9.67;8.33;;;;;11.19;67.49;-19511.19;4852808;29;45499;-95
2022/11/20 08:57:07;;;;;;;;;4.00;3.00;;;;;9.47;68.63;-19465.84;5388529;23;73901;-85
2022/11/20 09:00:54;;;;;;;;;6.00;4.00;;;;;11.10;68.75;-19508.75;4867811;29;45884;-89
2022/11/20 09:02:52;;;;;;;;;5.00;3.00;;;;;10.54;70.23;-19494.06;4879150;29;45522;-91
2022/11/20 09:08:16;;;;;;;;;3.00;3.00;;;;;10.65;71.37;-19496.91;5355425;23;47006;-85
2022/11/20 09:32:42;;;;;;;;;7.33;6.67;;;;;11.05;73.78;-19507.28;5093487;23;45896;-84
2022/11/20 09:35:08;;;;;;;;;5.67;5.67;;;;;10.78;73.91;-19500.28;4879756;29;45608;-81
2022/11/20 09:37:34;;;;;;;;;8.00;7.33;;;;;10.95;74.11;-19504.72;4921096;23;45567;-81
2022/11/20 09:43:32;;;;;;;;;10.00;8.00;;;;;11.00;75.44;-19506.06;4880865;29;45386;-83
2022/11/20 09:46:43;;;;;;;;;6.67;6.00;;;;;10.98;75.60;-19505.66;4873536;29;45409;-83
2022/11/20 09:50:11;;;;;;;;;10.00;8.00;;;;;10.99;76.06;-19505.94;4876781;29;45597;-87
2022/11/20 09:52:49;;;;;;;;;8.67;6.00;;;;;9.45;75.60;-19465.19;4858052;29;47956;-83
2022/11/20 09:55:30;;;;;;;;;6.00;5.00;;;;;9.32;75.78;-19461.81;4871882;29;45506;-83
2022/11/20 09:58:12;;;;;;;;;7.00;7.00;;;;;9.33;75.97;-19461.94;4875137;29;45454;-87
2022/11/20 10:01:04;;;;;;;;;6.00;6.00;;;;;10.95;76.72;-18775.94;4878550;29;45343;-85
2022/11/20 10:03:41;;;;;;;;;7.00;7.00;;;;;10.54;76.53;-19003.56;4868774;29;47157;-81
2022/11/20 10:06:18;;;;;;;;;8.00;4.33;;;;;10.89;76.89;-18127.66;4874621;29;46795;-85
2022/11/20 10:09:00;;;;;;;;;8.33;7.33;;;;;10.08;77.03;-16405.16;4875202;29;45428;-85
2022/11/20 10:12:02;;;;;;;;;5.33;5.33;;;;;10.42;77.52;-15359.53;4862079;29;45642;-83
2022/11/20 10:14:50;;;;;;;;;5.67;5.00;;;;;10.89;77.58;-14933.84;4877139;29;47736;-84
2022/11/20 10:17:24;;;;;;;;;5.67;5.67;;;;;10.80;77.55;-13280.09;4868449;29;45490;-84
2022/11/20 10:20:46;;;;;;;;;5.00;5.00;;;;;9.59;78.45;-9246.22;4872655;29;45702;-83
2022/11/20 10:23:33;;;;;;;;;4.67;4.67;;;;;10.98;78.98;-6097.28;4786235;29;45631;-83
2022/11/20 10:26:43;;;;;;;;;8.33;6.67;;;;;9.20;78.34;-5692.59;4873754;29;46495;-92
2022/11/20 10:32:09;;;;;;;;;7.00;6.67;;;;;11.16;79.41;-2188.63;4862621;29;45523;-85
2022/11/20 10:45:19;;;;;;;;;9.00;7.67;;;;;10.04;79.05;-1474.13;4892280;29;45621;-88
2022/11/20 10:56:05;;;;;;;;;3.67;3.67;;;;;10.81;79.21;-79.34;5052567;23;45431;-88
2022/11/20 10:59:01;;;;;;;;;7.33;6.00;;;;;11.34;79.67;2236.38;4881709;29;45457;-88
2022/11/20 11:01:42;;;;;;;;;11.33;10.00;;;;;10.59;79.67;3490.94;4892642;29;46974;-88
2022/11/20 11:17:29;;;;;;;;;;;;;;;;;;;;;
2022/11/20 11:23:05;;;;;;;;;5.67;4.00;;;;;10.11;81.55;14938.81;5157313;23;45474;-89
2022/11/20 11:25:55;;;;;;;;;9.67;7.33;;;;;11.22;82.53;17363.06;4856668;29;47443;-91
2022/11/20 11:28:37;;;;;;;;;4.00;4.00;;;;;10.04;81.36;15987.03;4873290;29;45545;-92
2022/11/20 11:36:52;;;;;;;;;3.67;3.67;;;;;10.28;81.91;17645.22;4907525;23;45552;-90
2022/11/20 11:39:59;;;;;;;;;;;;;;;;;;;;;
2022/11/20 11:42:24;;;;;;;;;1.67;1.67;;;;;10.01;81.40;16684.53;4895118;29;70869;-91
2022/11/20 11:45:05;;;;;;;;;3.33;3.33;;;;;10.24;81.38;15604.53;4900329;29;45444;-89
2022/11/20 11:48:24;;;;;;;;;4.67;4.00;;;;;10.02;81.21;16429.38;4894648;29;47598;-90
2022/11/20 11:50:53;;;;;;;;;3.00;3.00;;;;;11.03;81.34;16346.41;4860169;29;45562;-93
2022/11/20 13:11:48;;;;;;;;;4.67;4.00;;;;;11.96;85.59;33716.59;5777794;23;46891;-87
2022/11/20 13:14:56;;;;;;;;;8.00;7.33;;;;;12.41;84.56;32306.19;4904009;28;45495;-89
2022/11/20 13:20:03;;;;;;;;;5.00;5.00;;;;;11.40;83.87;30218.75;4993381;23;45488;-94
2022/11/20 13:25:38;;;;;;;;;5.00;5.00;;;;;12.44;84.16;30666.03;4856784;29;45626;-88
2022/11/20 13:28:15;;;;;;;;;5.00;5.00;;;;;12.46;83.97;30454.13;4884800;28;45666;-88
2022/11/20 13:31:23;;;;;;;;;5.00;5.00;;;;;12.47;83.86;30110.59;4901299;28;46395;-93
2022/11/20 16:02:26;;;;;;;;;5.00;3.00;;;;;12.76;76.08;-19552.41;4947527;23;45605;-93
2022/11/20 16:04:52;;;;;;;;;4.67;3.00;;;;;12.32;75.89;-19540.84;4899107;28;45405;-86
2022/11/20 16:08:12;;;;;;;;;6.00;4.00;;;;;11.54;76.21;-19520.34;4900763;29;45629;-92
2022/11/20 16:10:25;;;;;;;;;6.00;3.33;;;;;12.18;75.48;-19537.06;4893819;28;45795;-91
2022/11/20 16:15:47;;;;;;;;;3.33;3.33;;;;;12.32;75.60;-19540.84;4893037;29;45475;-90
2022/11/20 16:18:18;;;;;;;;;4.00;3.00;;;;;12.09;75.68;-19534.78;4882748;29;47168;-90
2022/11/20 16:20:46;;;;;;;;;2.67;1.33;;;;;11.27;75.32;-19513.06;4884310;29;45768;-91
2022/11/20 16:23:11;;;;;;;;;6.00;5.00;;;;;11.08;75.51;-19508.22;4888803;29;45470;-92
2022/11/20 16:25:37;;;;;;;;;4.67;4.67;;;;;11.59;75.52;-19521.56;4902086;29;45712;-90
2022/11/20 16:28:03;;;;;;;;;5.00;5.00;;;;;12.26;75.48;-19539.22;4883747;29;48032;-90
2022/11/20 16:30:28;;;;;;;;;3.00;3.00;;;;;11.14;75.52;-19509.72;4885024;29;46625;-89
2022/11/20 16:32:54;;;;;;;;;5.33;5.00;;;;;11.94;75.84;-19530.88;4883555;29;45525;-89
2022/11/20 16:35:19;;;;;;;;;9.00;3.67;;;;;10.75;75.93;-19499.47;4884026;29;45597;-90
2022/11/20 16:38:25;;;;;;;;;6.67;5.00;;;;;12.36;75.98;-19541.91;4904904;23;46899;-89
2022/11/20 16:40:50;;;;;;;;;7.33;5.00;;;;;11.49;76.28;-19519.00;4899143;29;45461;-90
2022/11/20 16:43:16;;;;;;;;;5.00;5.00;;;;;11.89;76.12;-19529.38;4900647;29;45446;-89
2022/11/20 16:45:43;;;;;;;;;11.67;7.00;;;;;11.77;76.73;-19526.28;4896975;29;45613;-90
2022/11/20 16:48:16;;;;;;;;;8.33;6.33;;;;;11.74;76.67;-19525.59;4882845;29;48329;-90
2022/11/20 16:50:51;;;;;;;;;6.00;4.33;;;;;11.22;76.81;-19511.72;4890603;29;45466;-91
2022/11/20 16:53:19;;;;;;;;;6.67;5.33;;;;;10.62;76.41;-19495.94;4901089;29;45475;-91
2022/11/20 16:55:45;;;;;;;;;10.67;9.00;;;;;12.09;76.73;-19534.78;4900836;28;45619;-90
2022/11/20 16:58:11;;;;;;;;;9.33;6.67;;;;;11.94;76.80;-19530.72;4900719;29;46411;-91
2022/11/20 17:00:45;;;;;;;;;8.67;8.00;;;;;11.62;77.07;-19522.38;4910131;23;45369;-90
2022/11/20 17:03:12;;;;;;;;;11.67;9.00;;;;;10.97;77.16;-19505.25;4883474;29;45859;-91
2022/11/20 17:05:37;;;;;;;;;13.33;13.00;;;;;11.97;76.86;-19531.69;4888487;29;45504;-90
2022/11/20 17:08:03;;;;;;;;;13.00;10.00;;;;;10.41;76.66;-19490.41;4883905;29;46610;-90
2022/11/20 17:13:44;;;;;;;;;17.67;16.00;;;;;11.02;76.68;-19506.59;4953067;23;45744;-90
2022/11/20 17:16:24;;;;;;;;;17.67;13.33;;;;;10.99;77.03;-19030.63;4899804;29;45544;-91
2022/11/20 17:19:11;;;;;;;;;15.33;13.67;;;;;11.95;77.21;-19464.28;4896841;29;46352;-93
2022/11/20 17:21:36;;;;;;;;;16.67;12.67;;;;;10.51;77.40;-18775.19;4913189;28;46043;-86
2022/11/20 17:24:08;;;;;;;;;11.00;11.00;;;;;11.05;77.06;-18868.94;4898901;29;45988;-85
2022/11/20 17:26:37;;;;;;;;;14.33;12.00;;;;;11.33;77.30;-18446.34;4898547;28;45419;-88
2022/11/20 17:29:09;;;;;;;;;14.33;14.00;;;;;11.82;77.48;-18020.72;4888630;29;45707;-86
2022/11/20 17:31:37;;;;;;;;;15.67;15.33;;;;;11.25;77.57;-17038.69;4897563;29;45391;-86
2022/11/20 17:34:04;;;;;;;;;14.33;14.33;;;;;10.90;77.62;-17341.34;4898398;29;45564;-86
2022/11/20 17:37:03;;;;;;;;;15.67;14.33;;;;;11.89;77.92;-17752.78;4900563;28;45627;-86
2022/11/20 17:50:14;;;;;;;;;9.00;6.33;;;;;12.02;77.39;-19134.66;4730658;30;45776;-86
2022/11/20 17:52:57;;;;;;;;;8.33;7.33;;;;;12.05;77.39;-19533.69;4729190;30;46220;-86
2022/11/20 17:58:28;;;;;;;;;8.67;7.67;;;;;12.05;77.26;-19378.88;4732536;29;45624;-85
2022/11/20 18:01:35;;;;;;;;;9.00;9.00;;;;;10.53;76.91;-19493.78;4730151;30;45718;-84
2022/11/20 18:04:01;;;;;;;;;14.33;11.00;;;;;11.53;76.79;-19520.09;4723861;30;45771;-89
2022/11/20 18:06:28;;;;;;;;;11.33;10.67;;;;;11.40;76.88;-19516.72;4717990;30;45641;-88
2022/11/20 18:08:54;;;;;;;;;9.33;9.00;;;;;11.34;76.80;-19514.97;4713180;30;45554;-86
2022/11/20 18:11:22;;;;;;;;;10.67;10.33;;;;;11.70;76.68;-19524.53;4716062;30;45636;-86
2022/11/20 18:16:49;;;;;;;;;14.33;7.67;;;;;11.96;76.72;-19531.41;4720541;30;45924;-84
2022/11/20 18:19:27;;;;;;;;;11.00;10.00;;;;;11.15;76.62;-19510.13;4728086;30;45625;-86
2022/11/20 18:22:03;;;;;;;;;10.67;10.33;;;;;11.45;76.83;-19517.78;4731815;29;45670;-86
2022/11/20 18:24:29;;;;;;;;;16.33;12.00;;;;;10.81;76.40;-19501.06;4748201;29;46953;-87
2022/11/20 18:30:16;;;;;;;;;11.00;9.00;;;;;10.97;75.80;-19505.25;4780066;29;45547;-86
2022/11/20 18:32:41;;;;;;;;;15.00;10.67;;;;;10.81;76.12;-19501.06;4791742;29;45525;-85
2022/11/20 18:35:07;;;;;;;;;10.67;10.67;;;;;11.97;76.22;-19531.53;4790938;29;46235;-84
2022/11/20 18:37:32;;;;;;;;;9.00;9.00;;;;;11.87;76.34;-19528.97;4785609;29;45488;-85
2022/11/20 18:39:58;;;;;;;;;8.33;7.00;;;;;11.94;76.25;-19530.88;4816781;23;45765;-86
2022/11/20 18:45:08;;;;;;;;;10.00;8.00;;;;;11.78;76.52;-19526.69;4893688;28;45607;-87
2022/11/20 18:47:36;;;;;;;;;9.67;8.33;;;;;11.80;76.21;-19527.09;4895511;29;45968;-91
2022/11/20 18:50:04;;;;;;;;;11.00;10.33;;;;;11.92;76.42;-19530.19;4890965;29;45564;-88
2022/11/20 18:52:33;;;;;;;;;13.00;9.00;;;;;11.93;76.33;-19530.47;4913604;28;45819;-90
2022/11/20 18:55:01;;;;;;;;;7.67;7.67;;;;;10.80;76.43;-19500.81;4897970;29;45731;-90
2022/11/20 18:57:28;;;;;;;;;9.00;8.00;;;;;10.30;76.32;-19487.59;4897083;28;45517;-90
2022/11/20 18:59:54;;;;;;;;;9.00;8.00;;;;;11.64;76.68;-19522.78;4897897;29;45583;-89
2022/11/20 19:02:21;;;;;;;;;10.67;7.00;;;;;11.90;76.33;-19529.66;4892143;28;45821;-92
2022/11/20 19:04:46;;;;;;;;;10.33;8.67;;;;;11.93;76.48;-19530.47;4884782;29;48122;-93